sensor_id;sensor_type;location;lat;lon;timestamp;P1;durP1;ratioP1;P2;durP2;ratioP2
37483;SDS011;23337;52.212;9.926;2024-03-02T00:01:04;21.83;;;14.57;;
37483;SDS011;23337;52.212;9.926;2024-03-02T00:03:31;21.37;;;16.13;;
37483;SDS011;23337;52.212;9.926;2024-03-02T00:05:57;21.30;;;16.13;;
37483;SDS011;23337;52.212;9.926;2024-03-02T00:08:24;21.17;;;15.97;;
37483;SDS011;23337;52.212;9.926;2024-03-02T00:10:57;23.20;;;15.37;;
37483;SDS011;23337;52.212;9.926;2024-03-02T00:13:23;19.73;;;15.23;;
37483;SDS011;23337;52.212;9.926;2024-03-02T00:15:53;21.20;;;16.27;;
37483;SDS011;23337;52.212;9.926;2024-03-02T00:18:27;22.33;;;15.83;;
37483;SDS011;23337;52.212;9.926;2024-03-02T00:20:53;22.47;;;16.97;;
37483;SDS011;23337;52.212;9.926;2024-03-02T00:23:22;22.90;;;16.00;;
37483;SDS011;23337;52.212;9.926;2024-03-02T00:25:50;23.70;;;16.83;;
37483;SDS011;23337;52.212;9.926;2024-03-02T00:28:51;21.97;;;16.40;;
37483;SDS011;23337;52.212;9.926;2024-03-02T00:31:11;21.97;;;17.67;;
37483;SDS011;23337;52.212;9.926;2024-03-02T00:33:44;22.63;;;15.93;;
37483;SDS011;23337;52.212;9.926;2024-03-02T00:36:11;25.07;;;16.07;;
37483;SDS011;23337;52.212;9.926;2024-03-02T00:38:42;24.03;;;17.10;;
37483;SDS011;23337;52.212;9.926;2024-03-02T00:41:11;22.70;;;16.03;;
37483;SDS011;23337;52.212;9.926;2024-03-02T00:46:07;24.37;;;17.27;;
37483;SDS011;23337;52.212;9.926;2024-03-02T00:48:33;24.07;;;17.27;;
37483;SDS011;23337;52.212;9.926;2024-03-02T00:51:03;19.87;;;16.40;;
37483;SDS011;23337;52.212;9.926;2024-03-02T00:53:29;21.33;;;16.23;;
37483;SDS011;23337;52.212;9.926;2024-03-02T00:55:55;20.70;;;15.73;;
37483;SDS011;23337;52.212;9.926;2024-03-02T00:58:21;22.00;;;15.80;;
37483;SDS011;23337;52.212;9.926;2024-03-02T01:00:47;22.40;;;16.77;;
37483;SDS011;23337;52.212;9.926;2024-03-02T01:03:13;20.60;;;16.70;;
37483;SDS011;23337;52.212;9.926;2024-03-02T01:05:42;25.07;;;17.07;;
37483;SDS011;23337;52.212;9.926;2024-03-02T01:08:09;22.97;;;17.13;;
37483;SDS011;23337;52.212;9.926;2024-03-02T01:10:35;24.13;;;18.53;;
37483;SDS011;23337;52.212;9.926;2024-03-02T01:13:01;20.87;;;16.23;;
37483;SDS011;23337;52.212;9.926;2024-03-02T01:15:27;24.30;;;17.53;;
37483;SDS011;23337;52.212;9.926;2024-03-02T01:17:53;20.50;;;16.10;;
37483;SDS011;23337;52.212;9.926;2024-03-02T01:20:19;18.83;;;15.93;;
37483;SDS011;23337;52.212;9.926;2024-03-02T01:22:45;26.50;;;18.53;;
37483;SDS011;23337;52.212;9.926;2024-03-02T01:25:12;23.23;;;18.07;;
37483;SDS011;23337;52.212;9.926;2024-03-02T01:27:38;26.73;;;18.10;;
37483;SDS011;23337;52.212;9.926;2024-03-02T01:30:04;24.80;;;17.20;;
37483;SDS011;23337;52.212;9.926;2024-03-02T01:32:31;24.10;;;17.93;;
37483;SDS011;23337;52.212;9.926;2024-03-02T01:34:57;23.73;;;17.57;;
37483;SDS011;23337;52.212;9.926;2024-03-02T01:37:22;22.90;;;17.67;;
37483;SDS011;23337;52.212;9.926;2024-03-02T01:39:48;24.80;;;17.73;;
37483;SDS011;23337;52.212;9.926;2024-03-02T01:42:15;23.77;;;17.63;;
37483;SDS011;23337;52.212;9.926;2024-03-02T01:44:41;23.53;;;17.23;;
37483;SDS011;23337;52.212;9.926;2024-03-02T01:47:07;24.47;;;16.77;;
37483;SDS011;23337;52.212;9.926;2024-03-02T01:49:33;23.87;;;18.27;;
37483;SDS011;23337;52.212;9.926;2024-03-02T01:51:59;23.80;;;17.27;;
37483;SDS011;23337;52.212;9.926;2024-03-02T01:54:25;23.90;;;17.47;;
37483;SDS011;23337;52.212;9.926;2024-03-02T01:56:51;22.60;;;16.37;;
37483;SDS011;23337;52.212;9.926;2024-03-02T01:59:17;24.87;;;18.27;;
37483;SDS011;23337;52.212;9.926;2024-03-02T02:01:43;21.60;;;17.77;;
37483;SDS011;23337;52.212;9.926;2024-03-02T02:04:09;22.43;;;17.73;;
37483;SDS011;23337;52.212;9.926;2024-03-02T02:06:35;20.63;;;16.07;;
37483;SDS011;23337;52.212;9.926;2024-03-02T02:09:01;24.33;;;17.37;;
37483;SDS011;23337;52.212;9.926;2024-03-02T02:11:27;23.60;;;18.10;;
37483;SDS011;23337;52.212;9.926;2024-03-02T02:13:53;23.30;;;17.87;;
37483;SDS011;23337;52.212;9.926;2024-03-02T02:16:20;23.90;;;17.47;;
37483;SDS011;23337;52.212;9.926;2024-03-02T02:18:46;24.63;;;17.13;;
37483;SDS011;23337;52.212;9.926;2024-03-02T02:21:12;25.03;;;17.80;;
37483;SDS011;23337;52.212;9.926;2024-03-02T02:23:38;22.13;;;17.27;;
37483;SDS011;23337;52.212;9.926;2024-03-02T02:26:05;26.70;;;17.33;;
37483;SDS011;23337;52.212;9.926;2024-03-02T02:28:31;24.43;;;17.83;;
37483;SDS011;23337;52.212;9.926;2024-03-02T02:30:56;22.70;;;16.17;;
37483;SDS011;23337;52.212;9.926;2024-03-02T02:33:25;23.57;;;16.57;;
37483;SDS011;23337;52.212;9.926;2024-03-02T02:35:51;19.63;;;16.13;;
37483;SDS011;23337;52.212;9.926;2024-03-02T02:38:16;23.20;;;16.60;;
37483;SDS011;23337;52.212;9.926;2024-03-02T02:40:44;21.27;;;16.07;;
37483;SDS011;23337;52.212;9.926;2024-03-02T02:43:10;20.70;;;16.20;;
37483;SDS011;23337;52.212;9.926;2024-03-02T02:45:36;23.23;;;16.97;;
37483;SDS011;23337;52.212;9.926;2024-03-02T02:48:02;24.53;;;15.97;;
37483;SDS011;23337;52.212;9.926;2024-03-02T02:50:28;18.90;;;15.37;;
37483;SDS011;23337;52.212;9.926;2024-03-02T02:52:54;25.00;;;17.50;;
37483;SDS011;23337;52.212;9.926;2024-03-02T02:55:20;22.37;;;16.37;;
37483;SDS011;23337;52.212;9.926;2024-03-02T02:57:46;22.73;;;17.00;;
37483;SDS011;23337;52.212;9.926;2024-03-02T03:00:13;21.63;;;16.33;;
37483;SDS011;23337;52.212;9.926;2024-03-02T03:02:43;21.27;;;16.47;;
37483;SDS011;23337;52.212;9.926;2024-03-02T03:05:09;24.23;;;17.30;;
37483;SDS011;23337;52.212;9.926;2024-03-02T03:07:35;22.47;;;16.57;;
37483;SDS011;23337;52.212;9.926;2024-03-02T03:10:02;19.77;;;14.80;;
37483;SDS011;23337;52.212;9.926;2024-03-02T03:12:29;21.67;;;16.43;;
37483;SDS011;23337;52.212;9.926;2024-03-02T03:14:55;22.17;;;16.50;;
37483;SDS011;23337;52.212;9.926;2024-03-02T03:17:21;20.63;;;16.43;;
37483;SDS011;23337;52.212;9.926;2024-03-02T03:19:48;22.00;;;16.50;;
37483;SDS011;23337;52.212;9.926;2024-03-02T03:22:14;20.00;;;15.73;;
37483;SDS011;23337;52.212;9.926;2024-03-02T03:24:39;21.70;;;16.03;;
37483;SDS011;23337;52.212;9.926;2024-03-02T03:27:06;22.33;;;16.23;;
37483;SDS011;23337;52.212;9.926;2024-03-02T03:29:32;24.43;;;16.07;;
37483;SDS011;23337;52.212;9.926;2024-03-02T03:31:58;22.27;;;16.07;;
37483;SDS011;23337;52.212;9.926;2024-03-02T03:34:24;20.23;;;14.83;;
37483;SDS011;23337;52.212;9.926;2024-03-02T03:36:50;21.77;;;16.67;;
37483;SDS011;23337;52.212;9.926;2024-03-02T03:39:16;23.07;;;17.13;;
37483;SDS011;23337;52.212;9.926;2024-03-02T03:41:42;22.07;;;16.57;;
37483;SDS011;23337;52.212;9.926;2024-03-02T03:44:08;21.07;;;15.53;;
37483;SDS011;23337;52.212;9.926;2024-03-02T03:46:34;19.03;;;14.93;;
37483;SDS011;23337;52.212;9.926;2024-03-02T03:49:00;22.97;;;15.83;;
37483;SDS011;23337;52.212;9.926;2024-03-02T03:51:26;22.37;;;16.50;;
37483;SDS011;23337;52.212;9.926;2024-03-02T03:53:52;20.50;;;16.00;;
37483;SDS011;23337;52.212;9.926;2024-03-02T03:56:18;25.53;;;16.40;;
37483;SDS011;23337;52.212;9.926;2024-03-02T03:58:44;21.90;;;16.13;;
37483;SDS011;23337;52.212;9.926;2024-03-02T04:01:10;23.73;;;17.37;;
37483;SDS011;23337;52.212;9.926;2024-03-02T04:03:36;25.23;;;16.80;;
37483;SDS011;23337;52.212;9.926;2024-03-02T04:06:02;20.20;;;15.67;;
37483;SDS011;23337;52.212;9.926;2024-03-02T04:08:27;23.13;;;15.87;;
37483;SDS011;23337;52.212;9.926;2024-03-02T04:10:53;18.40;;;14.20;;
37483;SDS011;23337;52.212;9.926;2024-03-02T04:13:19;18.20;;;15.40;;
37483;SDS011;23337;52.212;9.926;2024-03-02T04:15:45;22.13;;;16.80;;
37483;SDS011;23337;52.212;9.926;2024-03-02T04:18:11;22.17;;;16.60;;
37483;SDS011;23337;52.212;9.926;2024-03-02T04:20:37;20.30;;;15.30;;
37483;SDS011;23337;52.212;9.926;2024-03-02T04:23:03;23.27;;;17.03;;
37483;SDS011;23337;52.212;9.926;2024-03-02T04:25:29;21.33;;;15.53;;
37483;SDS011;23337;52.212;9.926;2024-03-02T04:27:55;22.17;;;16.83;;
37483;SDS011;23337;52.212;9.926;2024-03-02T04:30:21;20.30;;;16.30;;
37483;SDS011;23337;52.212;9.926;2024-03-02T04:32:47;19.53;;;14.93;;
37483;SDS011;23337;52.212;9.926;2024-03-02T04:35:14;20.50;;;15.73;;
37483;SDS011;23337;52.212;9.926;2024-03-02T04:37:40;20.63;;;15.87;;
37483;SDS011;23337;52.212;9.926;2024-03-02T04:40:06;21.17;;;16.90;;
37483;SDS011;23337;52.212;9.926;2024-03-02T04:42:35;21.10;;;15.90;;
37483;SDS011;23337;52.212;9.926;2024-03-02T04:45:01;20.43;;;15.03;;
37483;SDS011;23337;52.212;9.926;2024-03-02T04:47:27;22.57;;;16.83;;
37483;SDS011;23337;52.212;9.926;2024-03-02T04:49:53;25.20;;;17.63;;
37483;SDS011;23337;52.212;9.926;2024-03-02T04:52:19;25.07;;;17.67;;
37483;SDS011;23337;52.212;9.926;2024-03-02T04:54:45;23.87;;;17.67;;
37483;SDS011;23337;52.212;9.926;2024-03-02T04:57:29;20.83;;;16.20;;
37483;SDS011;23337;52.212;9.926;2024-03-02T04:59:55;20.17;;;16.27;;
37483;SDS011;23337;52.212;9.926;2024-03-02T05:02:21;21.67;;;16.53;;
37483;SDS011;23337;52.212;9.926;2024-03-02T05:04:47;25.23;;;18.00;;
37483;SDS011;23337;52.212;9.926;2024-03-02T05:07:13;25.67;;;17.53;;
37483;SDS011;23337;52.212;9.926;2024-03-02T05:09:39;21.50;;;16.53;;
37483;SDS011;23337;52.212;9.926;2024-03-02T05:12:05;21.83;;;16.43;;
37483;SDS011;23337;52.212;9.926;2024-03-02T05:14:48;25.07;;;18.53;;
37483;SDS011;23337;52.212;9.926;2024-03-02T05:17:14;22.13;;;16.67;;
37483;SDS011;23337;52.212;9.926;2024-03-02T05:19:40;27.13;;;18.77;;
37483;SDS011;23337;52.212;9.926;2024-03-02T05:22:06;23.50;;;17.73;;
37483;SDS011;23337;52.212;9.926;2024-03-02T05:24:32;23.70;;;16.50;;
37483;SDS011;23337;52.212;9.926;2024-03-02T05:26:58;23.57;;;17.53;;
37483;SDS011;23337;52.212;9.926;2024-03-02T05:29:24;23.13;;;16.27;;
37483;SDS011;23337;52.212;9.926;2024-03-02T05:31:50;27.17;;;18.60;;
37483;SDS011;23337;52.212;9.926;2024-03-02T05:34:16;22.87;;;16.13;;
37483;SDS011;23337;52.212;9.926;2024-03-02T05:36:43;23.83;;;17.40;;
37483;SDS011;23337;52.212;9.926;2024-03-02T05:39:09;24.63;;;16.97;;
37483;SDS011;23337;52.212;9.926;2024-03-02T05:41:35;23.13;;;17.50;;
37483;SDS011;23337;52.212;9.926;2024-03-02T05:44:03;24.50;;;17.47;;
37483;SDS011;23337;52.212;9.926;2024-03-02T05:46:28;22.87;;;17.20;;
37483;SDS011;23337;52.212;9.926;2024-03-02T05:48:54;20.50;;;16.17;;
37483;SDS011;23337;52.212;9.926;2024-03-02T05:51:20;24.97;;;17.40;;
37483;SDS011;23337;52.212;9.926;2024-03-02T05:53:46;23.70;;;17.47;;
37483;SDS011;23337;52.212;9.926;2024-03-02T05:56:12;21.47;;;15.47;;
37483;SDS011;23337;52.212;9.926;2024-03-02T05:58:38;20.63;;;16.23;;
37483;SDS011;23337;52.212;9.926;2024-03-02T06:01:23;21.27;;;16.50;;
37483;SDS011;23337;52.212;9.926;2024-03-02T06:03:53;24.67;;;18.13;;
37483;SDS011;23337;52.212;9.926;2024-03-02T06:06:19;21.17;;;16.43;;
37483;SDS011;23337;52.212;9.926;2024-03-02T06:08:46;21.23;;;15.33;;
37483;SDS011;23337;52.212;9.926;2024-03-02T06:11:12;23.53;;;17.07;;
37483;SDS011;23337;52.212;9.926;2024-03-02T06:13:37;22.80;;;16.80;;
37483;SDS011;23337;52.212;9.926;2024-03-02T06:16:03;22.90;;;16.80;;
37483;SDS011;23337;52.212;9.926;2024-03-02T06:18:29;20.27;;;16.60;;
37483;SDS011;23337;52.212;9.926;2024-03-02T06:20:55;23.27;;;17.03;;
37483;SDS011;23337;52.212;9.926;2024-03-02T06:23:21;20.50;;;16.43;;
37483;SDS011;23337;52.212;9.926;2024-03-02T06:25:47;22.03;;;16.20;;
37483;SDS011;23337;52.212;9.926;2024-03-02T06:28:13;20.07;;;16.70;;
37483;SDS011;23337;52.212;9.926;2024-03-02T06:30:42;23.00;;;16.73;;
37483;SDS011;23337;52.212;9.926;2024-03-02T06:33:08;22.67;;;16.30;;
37483;SDS011;23337;52.212;9.926;2024-03-02T06:35:34;20.67;;;16.17;;
37483;SDS011;23337;52.212;9.926;2024-03-02T06:38:00;21.33;;;16.47;;
37483;SDS011;23337;52.212;9.926;2024-03-02T06:40:26;24.03;;;17.17;;
37483;SDS011;23337;52.212;9.926;2024-03-02T06:42:52;22.30;;;17.33;;
37483;SDS011;23337;52.212;9.926;2024-03-02T06:45:18;22.03;;;17.60;;
37483;SDS011;23337;52.212;9.926;2024-03-02T06:47:44;24.67;;;17.87;;
37483;SDS011;23337;52.212;9.926;2024-03-02T06:50:10;22.47;;;16.60;;
37483;SDS011;23337;52.212;9.926;2024-03-02T06:52:36;26.57;;;16.67;;
37483;SDS011;23337;52.212;9.926;2024-03-02T06:55:02;21.33;;;16.70;;
37483;SDS011;23337;52.212;9.926;2024-03-02T06:57:29;20.87;;;15.97;;
37483;SDS011;23337;52.212;9.926;2024-03-02T06:59:55;22.13;;;16.23;;
37483;SDS011;23337;52.212;9.926;2024-03-02T07:02:23;21.73;;;17.47;;
37483;SDS011;23337;52.212;9.926;2024-03-02T07:04:51;21.17;;;15.63;;
37483;SDS011;23337;52.212;9.926;2024-03-02T07:07:17;19.17;;;15.13;;
37483;SDS011;23337;52.212;9.926;2024-03-02T07:09:43;21.00;;;16.57;;
37483;SDS011;23337;52.212;9.926;2024-03-02T07:12:09;18.80;;;14.97;;
37483;SDS011;23337;52.212;9.926;2024-03-02T07:14:35;17.90;;;13.37;;
37483;SDS011;23337;52.212;9.926;2024-03-02T07:17:20;18.33;;;14.60;;
37483;SDS011;23337;52.212;9.926;2024-03-02T07:19:46;21.33;;;15.73;;
37483;SDS011;23337;52.212;9.926;2024-03-02T07:22:12;21.10;;;15.60;;
37483;SDS011;23337;52.212;9.926;2024-03-02T07:24:41;20.17;;;15.77;;
37483;SDS011;23337;52.212;9.926;2024-03-02T07:27:11;22.77;;;16.17;;
37483;SDS011;23337;52.212;9.926;2024-03-02T07:29:37;19.40;;;15.43;;
37483;SDS011;23337;52.212;9.926;2024-03-02T07:32:03;25.00;;;16.53;;
37483;SDS011;23337;52.212;9.926;2024-03-02T07:34:29;17.47;;;15.47;;
37483;SDS011;23337;52.212;9.926;2024-03-02T07:36:55;19.60;;;15.00;;
37483;SDS011;23337;52.212;9.926;2024-03-02T07:39:21;20.10;;;15.73;;
37483;SDS011;23337;52.212;9.926;2024-03-02T07:41:47;20.77;;;17.17;;
37483;SDS011;23337;52.212;9.926;2024-03-02T07:44:13;20.50;;;15.83;;
37483;SDS011;23337;52.212;9.926;2024-03-02T07:46:40;21.43;;;17.03;;
37483;SDS011;23337;52.212;9.926;2024-03-02T07:49:06;22.43;;;16.77;;
37483;SDS011;23337;52.212;9.926;2024-03-02T07:51:32;24.70;;;16.47;;
37483;SDS011;23337;52.212;9.926;2024-03-02T07:53:58;19.50;;;15.73;;
37483;SDS011;23337;52.212;9.926;2024-03-02T07:56:24;20.77;;;15.93;;
37483;SDS011;23337;52.212;9.926;2024-03-02T07:58:50;23.80;;;17.47;;
37483;SDS011;23337;52.212;9.926;2024-03-02T08:01:16;20.60;;;15.60;;
37483;SDS011;23337;52.212;9.926;2024-03-02T08:03:42;19.27;;;16.60;;
37483;SDS011;23337;52.212;9.926;2024-03-02T08:06:13;21.13;;;16.53;;
37483;SDS011;23337;52.212;9.926;2024-03-02T08:08:40;21.53;;;16.73;;
37483;SDS011;23337;52.212;9.926;2024-03-02T08:11:06;20.27;;;16.23;;
37483;SDS011;23337;52.212;9.926;2024-03-02T08:13:32;23.23;;;15.77;;
37483;SDS011;23337;52.212;9.926;2024-03-02T08:15:58;20.73;;;15.53;;
37483;SDS011;23337;52.212;9.926;2024-03-02T08:18:24;25.07;;;15.13;;
37483;SDS011;23337;52.212;9.926;2024-03-02T08:20:50;21.43;;;16.33;;
37483;SDS011;23337;52.212;9.926;2024-03-02T08:23:16;21.67;;;15.70;;
37483;SDS011;23337;52.212;9.926;2024-03-02T08:25:42;23.87;;;17.57;;
37483;SDS011;23337;52.212;9.926;2024-03-02T08:28:08;20.20;;;15.47;;
37483;SDS011;23337;52.212;9.926;2024-03-02T08:30:34;19.30;;;15.57;;
37483;SDS011;23337;52.212;9.926;2024-03-02T08:33:00;22.03;;;16.40;;
37483;SDS011;23337;52.212;9.926;2024-03-02T08:35:26;22.43;;;15.87;;
37483;SDS011;23337;52.212;9.926;2024-03-02T08:37:53;25.20;;;16.13;;
37483;SDS011;23337;52.212;9.926;2024-03-02T08:40:19;20.50;;;16.80;;
37483;SDS011;23337;52.212;9.926;2024-03-02T08:42:45;21.90;;;16.23;;
37483;SDS011;23337;52.212;9.926;2024-03-02T08:45:11;21.23;;;15.70;;
37483;SDS011;23337;52.212;9.926;2024-03-02T08:47:37;20.27;;;15.37;;
37483;SDS011;23337;52.212;9.926;2024-03-02T08:50:04;22.77;;;16.43;;
37483;SDS011;23337;52.212;9.926;2024-03-02T08:52:31;23.00;;;15.07;;
37483;SDS011;23337;52.212;9.926;2024-03-02T08:54:57;19.43;;;15.40;;
37483;SDS011;23337;52.212;9.926;2024-03-02T08:57:23;23.33;;;16.30;;
37483;SDS011;23337;52.212;9.926;2024-03-02T08:59:49;22.90;;;16.60;;
37483;SDS011;23337;52.212;9.926;2024-03-02T09:02:18;21.13;;;14.73;;
37483;SDS011;23337;52.212;9.926;2024-03-02T09:04:44;20.63;;;15.17;;
37483;SDS011;23337;52.212;9.926;2024-03-02T09:07:10;17.73;;;14.30;;
37483;SDS011;23337;52.212;9.926;2024-03-02T09:09:36;20.93;;;15.17;;
37483;SDS011;23337;52.212;9.926;2024-03-02T09:12:04;17.63;;;13.80;;
37483;SDS011;23337;52.212;9.926;2024-03-02T09:14:30;18.87;;;14.20;;
37483;SDS011;23337;52.212;9.926;2024-03-02T09:16:56;18.87;;;13.57;;
37483;SDS011;23337;52.212;9.926;2024-03-02T09:19:22;19.17;;;13.93;;
37483;SDS011;23337;52.212;9.926;2024-03-02T09:21:48;18.30;;;12.90;;
37483;SDS011;23337;52.212;9.926;2024-03-02T09:24:15;16.93;;;13.00;;
37483;SDS011;23337;52.212;9.926;2024-03-02T09:26:41;18.17;;;13.40;;
37483;SDS011;23337;52.212;9.926;2024-03-02T09:29:07;20.97;;;13.73;;
37483;SDS011;23337;52.212;9.926;2024-03-02T09:31:38;16.13;;;12.17;;
37483;SDS011;23337;52.212;9.926;2024-03-02T09:34:04;17.33;;;13.83;;
37483;SDS011;23337;52.212;9.926;2024-03-02T09:36:30;16.57;;;13.13;;
37483;SDS011;23337;52.212;9.926;2024-03-02T09:38:56;16.10;;;12.13;;
37483;SDS011;23337;52.212;9.926;2024-03-02T09:41:22;14.37;;;12.10;;
37483;SDS011;23337;52.212;9.926;2024-03-02T09:43:48;15.93;;;12.47;;
37483;SDS011;23337;52.212;9.926;2024-03-02T09:46:15;15.20;;;12.27;;
37483;SDS011;23337;52.212;9.926;2024-03-02T09:48:41;15.33;;;12.77;;
37483;SDS011;23337;52.212;9.926;2024-03-02T09:51:07;18.57;;;12.20;;
37483;SDS011;23337;52.212;9.926;2024-03-02T09:53:34;15.70;;;12.13;;
37483;SDS011;23337;52.212;9.926;2024-03-02T09:56:00;15.97;;;12.57;;
37483;SDS011;23337;52.212;9.926;2024-03-02T09:58:26;16.80;;;12.20;;
37483;SDS011;23337;52.212;9.926;2024-03-02T10:00:52;16.20;;;12.50;;
37483;SDS011;23337;52.212;9.926;2024-03-02T10:03:18;15.57;;;12.53;;
37483;SDS011;23337;52.212;9.926;2024-03-02T10:05:46;17.40;;;13.17;;
37483;SDS011;23337;52.212;9.926;2024-03-02T10:08:12;16.10;;;12.80;;
37483;SDS011;23337;52.212;9.926;2024-03-02T10:10:38;15.10;;;12.17;;
37483;SDS011;23337;52.212;9.926;2024-03-02T10:13:05;16.00;;;11.73;;
37483;SDS011;23337;52.212;9.926;2024-03-02T10:15:32;16.37;;;12.90;;
37483;SDS011;23337;52.212;9.926;2024-03-02T10:17:57;16.93;;;12.50;;
37483;SDS011;23337;52.212;9.926;2024-03-02T10:20:24;14.57;;;11.73;;
37483;SDS011;23337;52.212;9.926;2024-03-02T10:22:51;13.67;;;10.57;;
37483;SDS011;23337;52.212;9.926;2024-03-02T10:25:30;13.23;;;11.77;;
37483;SDS011;23337;52.212;9.926;2024-03-02T10:27:59;13.93;;;11.43;;
37483;SDS011;23337;52.212;9.926;2024-03-02T10:30:26;17.43;;;12.17;;
37483;SDS011;23337;52.212;9.926;2024-03-02T10:32:52;14.93;;;11.03;;
37483;SDS011;23337;52.212;9.926;2024-03-02T10:35:19;13.90;;;11.47;;
37483;SDS011;23337;52.212;9.926;2024-03-02T10:37:46;13.40;;;10.53;;
37483;SDS011;23337;52.212;9.926;2024-03-02T10:40:12;12.83;;;10.70;;
37483;SDS011;23337;52.212;9.926;2024-03-02T10:42:39;14.53;;;10.50;;
37483;SDS011;23337;52.212;9.926;2024-03-02T10:45:07;17.53;;;10.70;;
37483;SDS011;23337;52.212;9.926;2024-03-02T10:47:38;13.93;;;10.93;;
37483;SDS011;23337;52.212;9.926;2024-03-02T10:50:04;13.00;;;10.47;;
37483;SDS011;23337;52.212;9.926;2024-03-02T10:52:42;13.57;;;10.50;;
37483;SDS011;23337;52.212;9.926;2024-03-02T10:55:09;12.33;;;9.90;;
37483;SDS011;23337;52.212;9.926;2024-03-02T10:57:39;14.10;;;10.63;;
37483;SDS011;23337;52.212;9.926;2024-03-02T11:00:06;12.60;;;10.03;;
37483;SDS011;23337;52.212;9.926;2024-03-02T11:02:39;11.33;;;9.60;;
37483;SDS011;23337;52.212;9.926;2024-03-02T11:05:06;12.73;;;10.37;;
37483;SDS011;23337;52.212;9.926;2024-03-02T11:07:34;16.50;;;10.27;;
37483;SDS011;23337;52.212;9.926;2024-03-02T11:10:01;13.43;;;10.47;;
37483;SDS011;23337;52.212;9.926;2024-03-02T11:12:36;11.87;;;10.17;;
37483;SDS011;23337;52.212;9.926;2024-03-02T11:15:10;13.43;;;9.07;;
37483;SDS011;23337;52.212;9.926;2024-03-02T11:17:37;10.87;;;8.73;;
37483;SDS011;23337;52.212;9.926;2024-03-02T11:20:05;11.33;;;8.87;;
37483;SDS011;23337;52.212;9.926;2024-03-02T11:22:33;11.60;;;8.70;;
37483;SDS011;23337;52.212;9.926;2024-03-02T11:25:00;10.43;;;9.20;;
37483;SDS011;23337;52.212;9.926;2024-03-02T11:32:55;12.30;;;8.60;;
37483;SDS011;23337;52.212;9.926;2024-03-02T11:35:21;9.30;;;7.33;;
37483;SDS011;23337;52.212;9.926;2024-03-02T11:37:47;11.57;;;7.50;;
37483;SDS011;23337;52.212;9.926;2024-03-02T11:40:13;11.70;;;8.03;;
37483;SDS011;23337;52.212;9.926;2024-03-02T11:42:39;9.47;;;6.90;;
37483;SDS011;23337;52.212;9.926;2024-03-02T11:45:08;8.43;;;6.50;;
37483;SDS011;23337;52.212;9.926;2024-03-02T11:47:34;10.17;;;6.70;;
37483;SDS011;23337;52.212;9.926;2024-03-02T11:50:00;10.17;;;7.07;;
37483;SDS011;23337;52.212;9.926;2024-03-02T11:52:26;8.43;;;6.73;;
37483;SDS011;23337;52.212;9.926;2024-03-02T11:54:52;8.10;;;6.00;;
37483;SDS011;23337;52.212;9.926;2024-03-02T11:57:19;10.27;;;7.33;;
37483;SDS011;23337;52.212;9.926;2024-03-02T11:59:47;9.93;;;7.07;;
37483;SDS011;23337;52.212;9.926;2024-03-02T12:02:15;7.73;;;5.93;;
37483;SDS011;23337;52.212;9.926;2024-03-02T12:04:42;8.87;;;7.07;;
37483;SDS011;23337;52.212;9.926;2024-03-02T12:07:08;9.33;;;7.17;;
37483;SDS011;23337;52.212;9.926;2024-03-02T12:09:34;7.67;;;6.80;;
37483;SDS011;23337;52.212;9.926;2024-03-02T12:12:01;8.60;;;7.17;;
37483;SDS011;23337;52.212;9.926;2024-03-02T12:14:28;8.17;;;6.97;;
37483;SDS011;23337;52.212;9.926;2024-03-02T12:16:54;8.87;;;6.93;;
37483;SDS011;23337;52.212;9.926;2024-03-02T12:19:21;8.90;;;7.03;;
37483;SDS011;23337;52.212;9.926;2024-03-02T12:21:47;9.30;;;7.07;;
37483;SDS011;23337;52.212;9.926;2024-03-02T12:24:13;10.97;;;7.47;;
37483;SDS011;23337;52.212;9.926;2024-03-02T12:26:39;8.50;;;7.60;;
37483;SDS011;23337;52.212;9.926;2024-03-02T12:29:05;11.80;;;8.30;;
37483;SDS011;23337;52.212;9.926;2024-03-02T12:31:31;10.63;;;7.43;;
37483;SDS011;23337;52.212;9.926;2024-03-02T12:33:57;8.13;;;6.83;;
37483;SDS011;23337;52.212;9.926;2024-03-02T12:36:24;11.17;;;8.10;;
37483;SDS011;23337;52.212;9.926;2024-03-02T12:38:52;9.63;;;7.87;;
37483;SDS011;23337;52.212;9.926;2024-03-02T12:41:19;8.33;;;6.77;;
37483;SDS011;23337;52.212;9.926;2024-03-02T12:43:45;9.37;;;6.50;;
37483;SDS011;23337;52.212;9.926;2024-03-02T12:46:11;10.37;;;7.53;;
37483;SDS011;23337;52.212;9.926;2024-03-02T12:48:37;9.27;;;6.33;;
37483;SDS011;23337;52.212;9.926;2024-03-02T12:51:07;11.33;;;7.30;;
37483;SDS011;23337;52.212;9.926;2024-03-02T12:53:33;8.33;;;6.70;;
37483;SDS011;23337;52.212;9.926;2024-03-02T12:55:59;8.43;;;6.20;;
37483;SDS011;23337;52.212;9.926;2024-03-02T12:58:25;9.10;;;6.63;;
37483;SDS011;23337;52.212;9.926;2024-03-02T13:01:05;8.07;;;5.90;;
37483;SDS011;23337;52.212;9.926;2024-03-02T13:03:31;7.17;;;6.20;;
37483;SDS011;23337;52.212;9.926;2024-03-02T13:05:57;6.27;;;4.90;;
37483;SDS011;23337;52.212;9.926;2024-03-02T13:08:23;8.50;;;5.30;;
37483;SDS011;23337;52.212;9.926;2024-03-02T13:10:49;6.67;;;5.30;;
37483;SDS011;23337;52.212;9.926;2024-03-02T13:13:15;6.23;;;5.17;;
37483;SDS011;23337;52.212;9.926;2024-03-02T13:15:42;6.10;;;4.90;;
37483;SDS011;23337;52.212;9.926;2024-03-02T13:18:08;5.67;;;4.70;;
37483;SDS011;23337;52.212;9.926;2024-03-02T13:20:34;7.53;;;4.90;;
37483;SDS011;23337;52.212;9.926;2024-03-02T13:23:01;6.17;;;5.07;;
37483;SDS011;23337;52.212;9.926;2024-03-02T13:25:26;6.23;;;5.30;;
37483;SDS011;23337;52.212;9.926;2024-03-02T13:27:52;8.00;;;6.10;;
37483;SDS011;23337;52.212;9.926;2024-03-02T13:30:18;9.27;;;5.90;;
37483;SDS011;23337;52.212;9.926;2024-03-02T13:32:45;5.13;;;4.47;;
37483;SDS011;23337;52.212;9.926;2024-03-02T13:35:11;5.37;;;3.60;;
37483;SDS011;23337;52.212;9.926;2024-03-02T13:37:36;3.40;;;3.07;;
37483;SDS011;23337;52.212;9.926;2024-03-02T13:40:03;3.87;;;3.03;;
37483;SDS011;23337;52.212;9.926;2024-03-02T13:42:29;6.40;;;3.23;;
37483;SDS011;23337;52.212;9.926;2024-03-02T13:44:55;4.17;;;3.53;;
37483;SDS011;23337;52.212;9.926;2024-03-02T13:47:22;4.13;;;3.30;;
37483;SDS011;23337;52.212;9.926;2024-03-02T13:49:48;6.67;;;4.97;;
37483;SDS011;23337;52.212;9.926;2024-03-02T13:52:14;5.43;;;4.70;;
37483;SDS011;23337;52.212;9.926;2024-03-02T13:54:42;6.60;;;5.23;;
37483;SDS011;23337;52.212;9.926;2024-03-02T13:57:08;5.00;;;3.53;;
37483;SDS011;23337;52.212;9.926;2024-03-02T13:59:35;5.37;;;4.37;;
37483;SDS011;23337;52.212;9.926;2024-03-02T14:02:01;5.10;;;4.07;;
37483;SDS011;23337;52.212;9.926;2024-03-02T14:04:31;6.03;;;3.73;;
37483;SDS011;23337;52.212;9.926;2024-03-02T14:06:58;4.63;;;4.10;;
37483;SDS011;23337;52.212;9.926;2024-03-02T14:09:24;4.80;;;3.50;;
37483;SDS011;23337;52.212;9.926;2024-03-02T14:11:50;5.93;;;4.40;;
37483;SDS011;23337;52.212;9.926;2024-03-02T14:14:17;4.80;;;3.93;;
37483;SDS011;23337;52.212;9.926;2024-03-02T14:16:43;5.50;;;4.20;;
37483;SDS011;23337;52.212;9.926;2024-03-02T14:19:10;6.10;;;4.33;;
37483;SDS011;23337;52.212;9.926;2024-03-02T14:21:36;6.00;;;3.50;;
37483;SDS011;23337;52.212;9.926;2024-03-02T14:24:02;5.53;;;3.80;;
37483;SDS011;23337;52.212;9.926;2024-03-02T14:26:28;4.93;;;3.60;;
37483;SDS011;23337;52.212;9.926;2024-03-02T14:28:54;4.87;;;4.33;;
37483;SDS011;23337;52.212;9.926;2024-03-02T14:31:20;4.77;;;3.57;;